sensor_id;sensor_type;location;lat;lon;timestamp;P1;durP1;ratioP1;P2;durP2;ratioP2
11608;SDS011;5860;52.018;8.536;2022-08-20T00:00:21;20.17;;;18.08;;
11608;SDS011;5860;52.018;8.536;2022-08-20T00:02:52;21.35;;;17.65;;
11608;SDS011;5860;52.018;8.536;2022-08-20T00:07:57;21.48;;;15.98;;
11608;SDS011;5860;52.018;8.536;2022-08-20T00:10:24;21.35;;;14.70;;
11608;SDS011;5860;52.018;8.536;2022-08-20T00:12:53;22.48;;;15.57;;
11608;SDS011;5860;52.018;8.536;2022-08-20T00:15:21;18.73;;;15.57;;
11608;SDS011;5860;52.018;8.536;2022-08-20T00:17:51;18.13;;;15.25;;
11608;SDS011;5860;52.018;8.536;2022-08-20T00:20:20;20.70;;;14.50;;
11608;SDS011;5860;52.018;8.536;2022-08-20T00:22:49;19.27;;;15.57;;
11608;SDS011;5860;52.018;8.536;2022-08-20T00:25:16;22.45;;;15.65;;
11608;SDS011;5860;52.018;8.536;2022-08-20T00:27:43;17.30;;;15.38;;
11608;SDS011;5860;52.018;8.536;2022-08-20T00:30:11;17.30;;;15.52;;
11608;SDS011;5860;52.018;8.536;2022-08-20T00:32:47;18.67;;;15.27;;
11608;SDS011;5860;52.018;8.536;2022-08-20T00:35:28;20.75;;;15.18;;
11608;SDS011;5860;52.018;8.536;2022-08-20T00:37:57;18.55;;;15.90;;
11608;SDS011;5860;52.018;8.536;2022-08-20T00:40:32;18.15;;;15.75;;
11608;SDS011;5860;52.018;8.536;2022-08-20T00:43:04;17.42;;;14.85;;
11608;SDS011;5860;52.018;8.536;2022-08-20T00:45:33;18.20;;;15.25;;
11608;SDS011;5860;52.018;8.536;2022-08-20T00:48:01;16.65;;;14.25;;
11608;SDS011;5860;52.018;8.536;2022-08-20T00:50:30;17.15;;;14.68;;
11608;SDS011;5860;52.018;8.536;2022-08-20T00:53:00;17.40;;;14.00;;
11608;SDS011;5860;52.018;8.536;2022-08-20T00:55:29;18.80;;;14.43;;
11608;SDS011;5860;52.018;8.536;2022-08-20T00:57:59;19.57;;;14.90;;
11608;SDS011;5860;52.018;8.536;2022-08-20T01:00:31;19.57;;;13.87;;
11608;SDS011;5860;52.018;8.536;2022-08-20T01:03:06;16.43;;;14.70;;
11608;SDS011;5860;52.018;8.536;2022-08-20T01:05:35;18.30;;;15.00;;
11608;SDS011;5860;52.018;8.536;2022-08-20T01:08:04;16.93;;;14.13;;
11608;SDS011;5860;52.018;8.536;2022-08-20T01:10:33;19.73;;;14.50;;
11608;SDS011;5860;52.018;8.536;2022-08-20T01:13:03;15.53;;;13.70;;
11608;SDS011;5860;52.018;8.536;2022-08-20T01:15:35;17.73;;;13.83;;
11608;SDS011;5860;52.018;8.536;2022-08-20T01:18:13;17.33;;;14.30;;
11608;SDS011;5860;52.018;8.536;2022-08-20T01:20:44;17.47;;;13.97;;
11608;SDS011;5860;52.018;8.536;2022-08-20T01:26:13;17.13;;;14.17;;
11608;SDS011;5860;52.018;8.536;2022-08-20T01:31:33;15.47;;;13.83;;
11608;SDS011;5860;52.018;8.536;2022-08-20T01:34:05;16.20;;;13.47;;
11608;SDS011;5860;52.018;8.536;2022-08-20T01:36:39;16.30;;;13.80;;
11608;SDS011;5860;52.018;8.536;2022-08-20T01:39:14;16.47;;;14.87;;
11608;SDS011;5860;52.018;8.536;2022-08-20T01:44:15;20.13;;;16.50;;
11608;SDS011;5860;52.018;8.536;2022-08-20T01:46:44;22.47;;;18.40;;
11608;SDS011;5860;52.018;8.536;2022-08-20T01:49:49;21.37;;;17.97;;
11608;SDS011;5860;52.018;8.536;2022-08-20T01:52:12;23.77;;;18.70;;
11608;SDS011;5860;52.018;8.536;2022-08-20T01:54:45;23.73;;;18.83;;
11608;SDS011;5860;52.018;8.536;2022-08-20T01:57:13;21.77;;;19.43;;
11608;SDS011;5860;52.018;8.536;2022-08-20T01:59:43;22.83;;;18.33;;
11608;SDS011;5860;52.018;8.536;2022-08-20T02:02:10;25.30;;;20.07;;
11608;SDS011;5860;52.018;8.536;2022-08-20T02:04:39;24.53;;;19.73;;
11608;SDS011;5860;52.018;8.536;2022-08-20T02:07:07;21.70;;;19.13;;
11608;SDS011;5860;52.018;8.536;2022-08-20T02:09:41;24.33;;;19.07;;
11608;SDS011;5860;52.018;8.536;2022-08-20T02:12:08;21.47;;;18.37;;
11608;SDS011;5860;52.018;8.536;2022-08-20T02:14:39;21.50;;;18.43;;
11608;SDS011;5860;52.018;8.536;2022-08-20T02:17:08;20.27;;;17.95;;
11608;SDS011;5860;52.018;8.536;2022-08-20T02:19:46;23.37;;;18.43;;
11608;SDS011;5860;52.018;8.536;2022-08-20T02:25:31;23.00;;;19.10;;
11608;SDS011;5860;52.018;8.536;2022-08-20T02:28:00;24.00;;;20.80;;
11608;SDS011;5860;52.018;8.536;2022-08-20T02:30:31;23.03;;;20.50;;
11608;SDS011;5860;52.018;8.536;2022-08-20T02:33:02;27.60;;;21.42;;
11608;SDS011;5860;52.018;8.536;2022-08-20T02:35:30;23.60;;;20.57;;
11608;SDS011;5860;52.018;8.536;2022-08-20T02:37:59;23.37;;;20.97;;
11608;SDS011;5860;52.018;8.536;2022-08-20T02:40:27;24.47;;;20.90;;
11608;SDS011;5860;52.018;8.536;2022-08-20T02:42:57;24.83;;;21.57;;
11608;SDS011;5860;52.018;8.536;2022-08-20T02:45:25;25.98;;;21.25;;
11608;SDS011;5860;52.018;8.536;2022-08-20T02:47:53;25.67;;;22.13;;
11608;SDS011;5860;52.018;8.536;2022-08-20T02:50:23;24.07;;;21.13;;
11608;SDS011;5860;52.018;8.536;2022-08-20T02:52:51;23.47;;;20.97;;
11608;SDS011;5860;52.018;8.536;2022-08-20T02:55:19;26.53;;;21.53;;
11608;SDS011;5860;52.018;8.536;2022-08-20T02:57:54;27.37;;;21.27;;
11608;SDS011;5860;52.018;8.536;2022-08-20T03:00:24;23.40;;;20.90;;
11608;SDS011;5860;52.018;8.536;2022-08-20T03:02:53;27.53;;;21.20;;
11608;SDS011;5860;52.018;8.536;2022-08-20T03:05:20;23.03;;;20.53;;
11608;SDS011;5860;52.018;8.536;2022-08-20T03:07:48;24.73;;;20.67;;
11608;SDS011;5860;52.018;8.536;2022-08-20T03:10:29;26.80;;;21.10;;
11608;SDS011;5860;52.018;8.536;2022-08-20T03:12:59;24.47;;;21.37;;
11608;SDS011;5860;52.018;8.536;2022-08-20T03:15:28;26.93;;;23.40;;
11608;SDS011;5860;52.018;8.536;2022-08-20T03:17:56;30.30;;;24.90;;
11608;SDS011;5860;52.018;8.536;2022-08-20T03:20:24;28.63;;;25.30;;
11608;SDS011;5860;52.018;8.536;2022-08-20T03:22:52;29.77;;;25.30;;
11608;SDS011;5860;52.018;8.536;2022-08-20T03:25:19;31.00;;;27.57;;
11608;SDS011;5860;52.018;8.536;2022-08-20T03:27:47;32.07;;;27.10;;
11608;SDS011;5860;52.018;8.536;2022-08-20T03:30:19;37.43;;;27.13;;
11608;SDS011;5860;52.018;8.536;2022-08-20T03:32:47;33.87;;;26.77;;
11608;SDS011;5860;52.018;8.536;2022-08-20T03:35:15;31.67;;;26.23;;
11608;SDS011;5860;52.018;8.536;2022-08-20T03:37:43;34.40;;;28.10;;
11608;SDS011;5860;52.018;8.536;2022-08-20T03:40:16;34.00;;;29.93;;
11608;SDS011;5860;52.018;8.536;2022-08-20T03:42:46;40.33;;;32.70;;
11608;SDS011;5860;52.018;8.536;2022-08-20T03:45:13;41.20;;;33.40;;
11608;SDS011;5860;52.018;8.536;2022-08-20T03:47:45;40.83;;;32.37;;
11608;SDS011;5860;52.018;8.536;2022-08-20T03:50:14;39.33;;;32.77;;
11608;SDS011;5860;52.018;8.536;2022-08-20T03:52:48;45.07;;;35.97;;
11608;SDS011;5860;52.018;8.536;2022-08-20T03:55:17;42.03;;;34.97;;
11608;SDS011;5860;52.018;8.536;2022-08-20T03:57:45;44.47;;;36.77;;
11608;SDS011;5860;52.018;8.536;2022-08-20T04:00:15;49.20;;;37.70;;
11608;SDS011;5860;52.018;8.536;2022-08-20T04:02:46;48.70;;;37.60;;
11608;SDS011;5860;52.018;8.536;2022-08-20T04:05:13;49.33;;;38.00;;
11608;SDS011;5860;52.018;8.536;2022-08-20T04:07:40;48.53;;;37.57;;
11608;SDS011;5860;52.018;8.536;2022-08-20T04:10:08;52.03;;;39.20;;
11608;SDS011;5860;52.018;8.536;2022-08-20T04:12:37;47.83;;;37.27;;
11608;SDS011;5860;52.018;8.536;2022-08-20T04:15:18;48.43;;;36.97;;
11608;SDS011;5860;52.018;8.536;2022-08-20T04:17:47;44.80;;;36.63;;
11608;SDS011;5860;52.018;8.536;2022-08-20T04:20:21;47.27;;;35.07;;
11608;SDS011;5860;52.018;8.536;2022-08-20T04:22:52;42.70;;;35.60;;
11608;SDS011;5860;52.018;8.536;2022-08-20T04:25:25;50.00;;;37.63;;
11608;SDS011;5860;52.018;8.536;2022-08-20T04:27:55;46.60;;;36.70;;
11608;SDS011;5860;52.018;8.536;2022-08-20T04:30:26;46.97;;;36.47;;
11608;SDS011;5860;52.018;8.536;2022-08-20T04:32:53;46.87;;;36.80;;
11608;SDS011;5860;52.018;8.536;2022-08-20T04:35:21;49.53;;;37.73;;
11608;SDS011;5860;52.018;8.536;2022-08-20T04:37:56;46.50;;;38.20;;
11608;SDS011;5860;52.018;8.536;2022-08-20T04:40:28;52.40;;;37.30;;
11608;SDS011;5860;52.018;8.536;2022-08-20T04:43:14;46.63;;;37.17;;
11608;SDS011;5860;52.018;8.536;2022-08-20T04:45:41;49.57;;;37.53;;
11608;SDS011;5860;52.018;8.536;2022-08-20T04:48:08;46.53;;;37.77;;
11608;SDS011;5860;52.018;8.536;2022-08-20T04:50:41;45.37;;;37.50;;
11608;SDS011;5860;52.018;8.536;2022-08-20T04:53:10;44.73;;;37.37;;
11608;SDS011;5860;52.018;8.536;2022-08-20T04:55:39;43.53;;;36.33;;
11608;SDS011;5860;52.018;8.536;2022-08-20T04:58:13;48.70;;;38.73;;
11608;SDS011;5860;52.018;8.536;2022-08-20T05:00:50;42.83;;;36.70;;
11608;SDS011;5860;52.018;8.536;2022-08-20T05:03:18;43.83;;;36.23;;
11608;SDS011;5860;52.018;8.536;2022-08-20T05:05:45;44.73;;;36.57;;
11608;SDS011;5860;52.018;8.536;2022-08-20T05:08:13;43.03;;;36.13;;
11608;SDS011;5860;52.018;8.536;2022-08-20T05:10:45;40.60;;;34.33;;
11608;SDS011;5860;52.018;8.536;2022-08-20T05:13:12;41.70;;;34.50;;
11608;SDS011;5860;52.018;8.536;2022-08-20T05:15:40;42.60;;;34.13;;
11608;SDS011;5860;52.018;8.536;2022-08-20T05:18:07;38.43;;;33.20;;
11608;SDS011;5860;52.018;8.536;2022-08-20T05:20:35;37.17;;;32.97;;
11608;SDS011;5860;52.018;8.536;2022-08-20T05:23:06;37.50;;;32.00;;
11608;SDS011;5860;52.018;8.536;2022-08-20T05:25:35;38.47;;;32.30;;
11608;SDS011;5860;52.018;8.536;2022-08-20T05:28:05;37.73;;;32.73;;
11608;SDS011;5860;52.018;8.536;2022-08-20T05:30:39;35.83;;;30.90;;
11608;SDS011;5860;52.018;8.536;2022-08-20T05:33:08;37.97;;;31.67;;
11608;SDS011;5860;52.018;8.536;2022-08-20T05:35:37;37.27;;;32.50;;
11608;SDS011;5860;52.018;8.536;2022-08-20T05:38:05;37.73;;;31.47;;
11608;SDS011;5860;52.018;8.536;2022-08-20T05:40:33;34.07;;;30.27;;
11608;SDS011;5860;52.018;8.536;2022-08-20T05:43:00;34.67;;;29.67;;
11608;SDS011;5860;52.018;8.536;2022-08-20T05:45:32;33.53;;;28.87;;
11608;SDS011;5860;52.018;8.536;2022-08-20T05:48:06;32.60;;;27.50;;
11608;SDS011;5860;52.018;8.536;2022-08-20T05:50:36;29.63;;;24.77;;
11608;SDS011;5860;52.018;8.536;2022-08-20T05:53:04;27.90;;;25.00;;
11608;SDS011;5860;52.018;8.536;2022-08-20T05:55:31;29.07;;;24.70;;
11608;SDS011;5860;52.018;8.536;2022-08-20T05:57:59;30.57;;;27.00;;
11608;SDS011;5860;52.018;8.536;2022-08-20T06:00:28;31.03;;;26.33;;
11608;SDS011;5860;52.018;8.536;2022-08-20T06:02:55;36.17;;;28.47;;
11608;SDS011;5860;52.018;8.536;2022-08-20T06:05:41;32.13;;;27.83;;
11608;SDS011;5860;52.018;8.536;2022-08-20T06:08:08;32.27;;;27.60;;
11608;SDS011;5860;52.018;8.536;2022-08-20T06:10:36;35.00;;;28.50;;
11608;SDS011;5860;52.018;8.536;2022-08-20T06:13:07;31.23;;;27.90;;
11608;SDS011;5860;52.018;8.536;2022-08-20T06:15:39;32.50;;;29.10;;
11608;SDS011;5860;52.018;8.536;2022-08-20T06:18:07;32.93;;;29.43;;
11608;SDS011;5860;52.018;8.536;2022-08-20T06:20:53;31.20;;;27.60;;
11608;SDS011;5860;52.018;8.536;2022-08-20T06:23:21;32.00;;;28.50;;
11608;SDS011;5860;52.018;8.536;2022-08-20T06:25:50;32.03;;;27.73;;
11608;SDS011;5860;52.018;8.536;2022-08-20T06:28:17;31.03;;;27.80;;
11608;SDS011;5860;52.018;8.536;2022-08-20T06:30:44;30.50;;;27.20;;
11608;SDS011;5860;52.018;8.536;2022-08-20T06:33:11;29.77;;;26.57;;
11608;SDS011;5860;52.018;8.536;2022-08-20T06:35:38;27.50;;;24.60;;
11608;SDS011;5860;52.018;8.536;2022-08-20T06:38:06;28.80;;;25.70;;
11608;SDS011;5860;52.018;8.536;2022-08-20T06:40:35;27.40;;;24.57;;
11608;SDS011;5860;52.018;8.536;2022-08-20T06:43:02;27.30;;;24.27;;
11608;SDS011;5860;52.018;8.536;2022-08-20T06:45:30;25.25;;;22.58;;
11608;SDS011;5860;52.018;8.536;2022-08-20T06:47:58;25.27;;;22.67;;
11608;SDS011;5860;52.018;8.536;2022-08-20T06:50:29;25.00;;;22.40;;
11608;SDS011;5860;52.018;8.536;2022-08-20T06:52:58;26.13;;;23.27;;
11608;SDS011;5860;52.018;8.536;2022-08-20T06:55:25;25.27;;;22.57;;
11608;SDS011;5860;52.018;8.536;2022-08-20T06:57:56;26.73;;;22.80;;
11608;SDS011;5860;52.018;8.536;2022-08-20T07:00:31;26.13;;;23.33;;
11608;SDS011;5860;52.018;8.536;2022-08-20T07:03:00;27.43;;;23.30;;
11608;SDS011;5860;52.018;8.536;2022-08-20T07:05:28;24.43;;;21.83;;
11608;SDS011;5860;52.018;8.536;2022-08-20T07:07:56;22.07;;;19.73;;
11608;SDS011;5860;52.018;8.536;2022-08-20T07:10:24;22.27;;;19.67;;
11608;SDS011;5860;52.018;8.536;2022-08-20T07:12:51;20.90;;;18.77;;
11608;SDS011;5860;52.018;8.536;2022-08-20T07:15:19;18.20;;;16.40;;
11608;SDS011;5860;52.018;8.536;2022-08-20T07:17:48;15.67;;;14.17;;
11608;SDS011;5860;52.018;8.536;2022-08-20T07:20:26;16.02;;;14.32;;
11608;SDS011;5860;52.018;8.536;2022-08-20T07:22:54;15.00;;;13.45;;
11608;SDS011;5860;52.018;8.536;2022-08-20T07:25:21;13.68;;;12.38;;
11608;SDS011;5860;52.018;8.536;2022-08-20T07:27:49;11.38;;;10.13;;
11608;SDS011;5860;52.018;8.536;2022-08-20T07:30:21;12.18;;;10.98;;
11608;SDS011;5860;52.018;8.536;2022-08-20T07:33:23;10.80;;;9.80;;
11608;SDS011;5860;52.018;8.536;2022-08-20T07:35:55;11.50;;;10.50;;
11608;SDS011;5860;52.018;8.536;2022-08-20T07:38:24;12.05;;;10.52;;
11608;SDS011;5860;52.018;8.536;2022-08-20T07:40:54;11.18;;;10.18;;
11608;SDS011;5860;52.018;8.536;2022-08-20T07:43:32;11.50;;;10.40;;
11608;SDS011;5860;52.018;8.536;2022-08-20T07:46:01;11.98;;;10.88;;
11608;SDS011;5860;52.018;8.536;2022-08-20T07:48:34;13.18;;;11.80;;
11608;SDS011;5860;52.018;8.536;2022-08-20T07:51:06;11.77;;;10.68;;
11608;SDS011;5860;52.018;8.536;2022-08-20T07:53:35;12.20;;;11.10;;
11608;SDS011;5860;52.018;8.536;2022-08-20T07:56:04;12.63;;;11.43;;
11608;SDS011;5860;52.018;8.536;2022-08-20T07:58:34;11.60;;;10.50;;
11608;SDS011;5860;52.018;8.536;2022-08-20T08:01:02;11.73;;;10.52;;
11608;SDS011;5860;52.018;8.536;2022-08-20T08:03:31;12.10;;;10.90;;
11608;SDS011;5860;52.018;8.536;2022-08-20T08:06:14;11.07;;;10.02;;
11608;SDS011;5860;52.018;8.536;2022-08-20T08:09:05;11.73;;;10.45;;
11608;SDS011;5860;52.018;8.536;2022-08-20T08:11:38;9.18;;;8.25;;
11608;SDS011;5860;52.018;8.536;2022-08-20T08:14:13;6.55;;;5.93;;
11608;SDS011;5860;52.018;8.536;2022-08-20T08:16:45;6.40;;;5.80;;
11608;SDS011;5860;52.018;8.536;2022-08-20T08:19:12;7.10;;;6.50;;
11608;SDS011;5860;52.018;8.536;2022-08-20T08:21:42;5.50;;;5.00;;
11608;SDS011;5860;52.018;8.536;2022-08-20T08:24:10;6.07;;;5.43;;
11608;SDS011;5860;52.018;8.536;2022-08-20T08:26:45;8.07;;;5.65;;
11608;SDS011;5860;52.018;8.536;2022-08-20T08:29:15;6.53;;;5.93;;
11608;SDS011;5860;52.018;8.536;2022-08-20T08:31:42;6.75;;;5.82;;
11608;SDS011;5860;52.018;8.536;2022-08-20T08:34:09;5.90;;;5.40;;
11608;SDS011;5860;52.018;8.536;2022-08-20T08:36:36;5.85;;;5.07;;
11608;SDS011;5860;52.018;8.536;2022-08-20T08:39:04;5.38;;;4.93;;
11608;SDS011;5860;52.018;8.536;2022-08-20T08:41:35;6.28;;;5.68;;
11608;SDS011;5860;52.018;8.536;2022-08-20T08:44:11;6.93;;;6.25;;
11608;SDS011;5860;52.018;8.536;2022-08-20T08:46:47;7.22;;;6.53;;
11608;SDS011;5860;52.018;8.536;2022-08-20T08:49:17;6.82;;;6.22;;
11608;SDS011;5860;52.018;8.536;2022-08-20T08:51:49;7.82;;;7.05;;
11608;SDS011;5860;52.018;8.536;2022-08-20T08:54:23;6.20;;;5.63;;
11608;SDS011;5860;52.018;8.536;2022-08-20T08:56:54;5.38;;;4.88;;
11608;SDS011;5860;52.018;8.536;2022-08-20T08:59:21;4.65;;;4.25;;
11608;SDS011;5860;52.018;8.536;2022-08-20T09:01:50;4.22;;;3.92;;
11608;SDS011;5860;52.018;8.536;2022-08-20T09:04:31;4.63;;;4.22;;
11608;SDS011;5860;52.018;8.536;2022-08-20T09:07:06;5.28;;;4.78;;
11608;SDS011;5860;52.018;8.536;2022-08-20T09:09:40;7.03;;;4.68;;
11608;SDS011;5860;52.018;8.536;2022-08-20T09:12:17;5.53;;;4.88;;
11608;SDS011;5860;52.018;8.536;2022-08-20T09:14:47;4.70;;;4.18;;
11608;SDS011;5860;52.018;8.536;2022-08-20T09:17:16;4.07;;;3.78;;
11608;SDS011;5860;52.018;8.536;2022-08-20T09:19:44;4.28;;;3.88;;
11608;SDS011;5860;52.018;8.536;2022-08-20T09:22:16;3.88;;;3.50;;
11608;SDS011;5860;52.018;8.536;2022-08-20T09:24:45;5.10;;;4.65;;
11608;SDS011;5860;52.018;8.536;2022-08-20T09:27:12;6.43;;;5.82;;
11608;SDS011;5860;52.018;8.536;2022-08-20T09:29:40;5.85;;;5.35;;
11608;SDS011;5860;52.018;8.536;2022-08-20T09:34:47;6.35;;;5.75;;
11608;SDS011;5860;52.018;8.536;2022-08-20T09:37:21;6.88;;;5.93;;
11608;SDS011;5860;52.018;8.536;2022-08-20T09:39:49;5.75;;;5.15;;
11608;SDS011;5860;52.018;8.536;2022-08-20T09:42:20;5.65;;;5.10;;
11608;SDS011;5860;52.018;8.536;2022-08-20T09:44:49;6.55;;;5.35;;
11608;SDS011;5860;52.018;8.536;2022-08-20T09:47:17;7.63;;;5.30;;
11608;SDS011;5860;52.018;8.536;2022-08-20T09:49:44;6.72;;;6.10;;
11608;SDS011;5860;52.018;8.536;2022-08-20T09:52:24;7.32;;;6.53;;
11608;SDS011;5860;52.018;8.536;2022-08-20T09:54:58;7.10;;;6.35;;
11608;SDS011;5860;52.018;8.536;2022-08-20T09:57:27;7.00;;;6.30;;
11608;SDS011;5860;52.018;8.536;2022-08-20T09:59:59;6.18;;;5.60;;
11608;SDS011;5860;52.018;8.536;2022-08-20T10:02:30;6.45;;;5.85;;
11608;SDS011;5860;52.018;8.536;2022-08-20T10:04:57;7.32;;;6.63;;
11608;SDS011;5860;52.018;8.536;2022-08-20T10:07:24;7.72;;;7.03;;
11608;SDS011;5860;52.018;8.536;2022-08-20T10:09:51;5.97;;;5.38;;
11608;SDS011;5860;52.018;8.536;2022-08-20T10:12:18;5.60;;;4.80;;
11608;SDS011;5860;52.018;8.536;2022-08-20T10:14:45;6.32;;;5.78;;
11608;SDS011;5860;52.018;8.536;2022-08-20T10:17:12;7.05;;;5.18;;
11608;SDS011;5860;52.018;8.536;2022-08-20T10:19:39;6.35;;;5.78;;
11608;SDS011;5860;52.018;8.536;2022-08-20T10:22:05;11.13;;;6.72;;
11608;SDS011;5860;52.018;8.536;2022-08-20T10:24:33;7.63;;;6.78;;
11608;SDS011;5860;52.018;8.536;2022-08-20T10:27:00;6.95;;;6.35;;
11608;SDS011;5860;52.018;8.536;2022-08-20T10:29:28;7.63;;;6.88;;
11608;SDS011;5860;52.018;8.536;2022-08-20T10:31:55;7.25;;;6.55;;
11608;SDS011;5860;52.018;8.536;2022-08-20T10:34:32;8.10;;;7.30;;
11608;SDS011;5860;52.018;8.536;2022-08-20T10:36:59;8.32;;;6.97;;
11608;SDS011;5860;52.018;8.536;2022-08-20T10:39:26;8.23;;;7.43;;
11608;SDS011;5860;52.018;8.536;2022-08-20T10:41:56;9.20;;;8.00;;
11608;SDS011;5860;52.018;8.536;2022-08-20T10:44:23;9.43;;;8.52;;
11608;SDS011;5860;52.018;8.536;2022-08-20T10:46:50;8.00;;;7.05;;
11608;SDS011;5860;52.018;8.536;2022-08-20T10:49:22;8.90;;;8.10;;
11608;SDS011;5860;52.018;8.536;2022-08-20T10:51:49;7.93;;;7.22;;
11608;SDS011;5860;52.018;8.536;2022-08-20T10:54:16;7.63;;;6.88;;
11608;SDS011;5860;52.018;8.536;2022-08-20T10:56:43;8.05;;;7.25;;
11608;SDS011;5860;52.018;8.536;2022-08-20T10:59:10;9.15;;;7.75;;
11608;SDS011;5860;52.018;8.536;2022-08-20T11:01:37;8.10;;;7.28;;
11608;SDS011;5860;52.018;8.536;2022-08-20T11:04:04;9.38;;;7.20;;
11608;SDS011;5860;52.018;8.536;2022-08-20T11:06:31;8.57;;;7.55;;
11608;SDS011;5860;52.018;8.536;2022-08-20T11:08:58;7.43;;;6.70;;
11608;SDS011;5860;52.018;8.536;2022-08-20T11:11:25;6.63;;;5.95;;
11608;SDS011;5860;52.018;8.536;2022-08-20T11:13:51;6.28;;;5.68;;
11608;SDS011;5860;52.018;8.536;2022-08-20T11:16:18;6.45;;;5.32;;
11608;SDS011;5860;52.018;8.536;2022-08-20T11:18:47;8.48;;;6.38;;
11608;SDS011;5860;52.018;8.536;2022-08-20T11:21:14;8.75;;;7.20;;
11608;SDS011;5860;52.018;8.536;2022-08-20T11:23:41;6.97;;;6.20;;
11608;SDS011;5860;52.018;8.536;2022-08-20T11:26:08;5.40;;;4.90;;
11608;SDS011;5860;52.018;8.536;2022-08-20T11:28:35;7.50;;;4.80;;
11608;SDS011;5860;52.018;8.536;2022-08-20T11:31:02;4.50;;;4.07;;
11608;SDS011;5860;52.018;8.536;2022-08-20T11:33:29;5.15;;;4.75;;
11608;SDS011;5860;52.018;8.536;2022-08-20T11:35:56;5.88;;;4.78;;
11608;SDS011;5860;52.018;8.536;2022-08-20T11:38:23;5.88;;;3.90;;
11608;SDS011;5860;52.018;8.536;2022-08-20T11:40:50;6.55;;;4.10;;
11608;SDS011;5860;52.018;8.536;2022-08-20T11:43:17;5.15;;;4.65;;
11608;SDS011;5860;52.018;8.536;2022-08-20T11:45:45;5.45;;;4.57;;
11608;SDS011;5860;52.018;8.536;2022-08-20T11:48:14;6.68;;;4.40;;
11608;SDS011;5860;52.018;8.536;2022-08-20T11:50:41;5.35;;;4.18;;
11608;SDS011;5860;52.018;8.536;2022-08-20T11:53:07;4.50;;;4.00;;
11608;SDS011;5860;52.018;8.536;2022-08-20T11:55:35;5.43;;;4.88;;
11608;SDS011;5860;52.018;8.536;2022-08-20T11:58:03;4.50;;;4.10;;
11608;SDS011;5860;52.018;8.536;2022-08-20T12:00:30;3.67;;;2.60;;
11608;SDS011;5860;52.018;8.536;2022-08-20T12:03:00;5.07;;;2.78;;
11608;SDS011;5860;52.018;8.536;2022-08-20T12:05:30;4.72;;;3.95;;
11608;SDS011;5860;52.018;8.536;2022-08-20T12:08:01;4.78;;;3.42;;
11608;SDS011;5860;52.018;8.536;2022-08-20T12:10:29;7.68;;;5.40;;
11608;SDS011;5860;52.018;8.536;2022-08-20T12:12:56;6.03;;;4.22;;
11608;SDS011;5860;52.018;8.536;2022-08-20T12:15:24;5.47;;;3.70;;
11608;SDS011;5860;52.018;8.536;2022-08-20T12:17:52;4.95;;;3.40;;
11608;SDS011;5860;52.018;8.536;2022-08-20T12:20:21;3.45;;;3.15;;
11608;SDS011;5860;52.018;8.536;2022-08-20T12:22:48;3.78;;;3.40;;
11608;SDS011;5860;52.018;8.536;2022-08-20T12:25:16;8.02;;;3.30;;
11608;SDS011;5860;52.018;8.536;2022-08-20T12:27:43;3.42;;;3.00;;
11608;SDS011;5860;52.018;8.536;2022-08-20T12:30:12;4.15;;;3.00;;
11608;SDS011;5860;52.018;8.536;2022-08-20T12:32:42;5.40;;;3.30;;
11608;SDS011;5860;52.018;8.536;2022-08-20T12:35:10;8.10;;;3.58;;
11608;SDS011;5860;52.018;8.536;2022-08-20T12:37:39;4.65;;;3.60;;
11608;SDS011;5860;52.018;8.536;2022-08-20T12:40:10;5.10;;;3.50;;
11608;SDS011;5860;52.018;8.536;2022-08-20T12:42:39;4.75;;;2.97;;
11608;SDS011;5860;52.018;8.536;2022-08-20T12:45:07;5.82;;;3.03;;
11608;SDS011;5860;52.018;8.536;2022-08-20T12:47:36;3.95;;;2.45;;
11608;SDS011;5860;52.018;8.536;2022-08-20T12:50:11;4.30;;;2.30;;
11608;SDS011;5860;52.018;8.536;2022-08-20T12:52:41;5.70;;;2.50;;
11608;SDS011;5860;52.018;8.536;2022-08-20T12:55:09;3.75;;;2.50;;
11608;SDS011;5860;52.018;8.536;2022-08-20T12:57:42;7.07;;;2.67;;
11608;SDS011;5860;52.018;8.536;2022-08-20T13:00:17;3.58;;;2.42;;
11608;SDS011;5860;52.018;8.536;2022-08-20T13:02:49;4.57;;;2.30;;
11608;SDS011;5860;52.018;8.536;2022-08-20T13:05:21;4.55;;;2.75;;
11608;SDS011;5860;52.018;8.536;2022-08-20T13:07:48;3.88;;;2.55;;
11608;SDS011;5860;52.018;8.536;2022-08-20T13:10:17;3.78;;;2.60;;
11608;SDS011;5860;52.018;8.536;2022-08-20T13:12:46;4.95;;;3.20;;
11608;SDS011;5860;52.018;8.536;2022-08-20T13:15:13;6.50;;;4.32;;
11608;SDS011;5860;52.018;8.536;2022-08-20T13:17:41;6.53;;;3.03;;
11608;SDS011;5860;52.018;8.536;2022-08-20T13:20:13;4.60;;;3.45;;
11608;SDS011;5860;52.018;8.536;2022-08-20T13:22:41;5.30;;;2.97;;
11608;SDS011;5860;52.018;8.536;2022-08-20T13:25:08;4.50;;;2.70;;
11608;SDS011;5860;52.018;8.536;2022-08-20T13:27:37;5.78;;;2.40;;
11608;SDS011;5860;52.018;8.536;2022-08-20T13:30:06;3.78;;;2.50;;
11608;SDS011;5860;52.018;8.536;2022-08-20T13:32:34;3.70;;;2.35;;
11608;SDS011;5860;52.018;8.536;2022-08-20T13:35:01;2.95;;;2.38;;
11608;SDS011;5860;52.018;8.536;2022-08-20T13:37:29;2.08;;;1.80;;
11608;SDS011;5860;52.018;8.536;2022-08-20T13:39:56;3.55;;;2.20;;
11608;SDS011;5860;52.018;8.536;2022-08-20T13:42:25;3.28;;;2.45;;
11608;SDS011;5860;52.018;8.536;2022-08-20T13:44:52;7.10;;;2.42;;
11608;SDS011;5860;52.018;8.536;2022-08-20T13:49:55;3.97;;;2.90;;
11608;SDS011;5860;52.018;8.536;2022-08-20T13:52:25;3.92;;;2.92;;
11608;SDS011;5860;52.018;8.536;2022-08-20T13:54:52;4.72;;;2.28;;
11608;SDS011;5860;52.018;8.536;2022-08-20T13:57:20;3.63;;;2.20;;
11608;SDS011;5860;52.018;8.536;2022-08-20T13:59:49;3.35;;;2.10;;
11608;SDS011;5860;52.018;8.536;2022-08-20T14:02:17;4.38;;;2.80;;
11608;SDS011;5860;52.018;8.536;2022-08-20T14:04:45;7.03;;;2.38;;
11608;SDS011;5860;52.018;8.536;2022-08-20T14:07:26;4.00;;;2.15;;
11608;SDS011;5860;52.018;8.536;2022-08-20T14:10:03;4.13;;;1.98;;
11608;SDS011;5860;52.018;8.536;2022-08-20T14:12:42;4.75;;;2.47;;
11608;SDS011;5860;52.018;8.536;2022-08-20T14:15:09;5.20;;;2.50;;
11608;SDS011;5860;52.018;8.536;2022-08-20T14:17:38;4.50;;;2.28;;
11608;SDS011;5860;52.018;8.536;2022-08-20T14:20:08;3.30;;;2.10;;
11608;SDS011;5860;52.018;8.536;2022-08-20T14:22:37;7.13;;;2.97;;
11608;SDS011;5860;52.018;8.536;2022-08-20T14:25:05;4.30;;;2.45;;
11608;SDS011;5860;52.018;8.536;2022-08-20T14:27:33;2.78;;;2.38;;
11608;SDS011;5860;52.018;8.536;2022-08-20T14:30:02;3.40;;;2.13;;
11608;SDS011;5860;52.018;8.536;2022-08-20T14:32:30;3.65;;;2.85;;
11608;SDS011;5860;52.018;8.536;2022-08-20T14:34:57;4.18;;;2.60;;
11608;SDS011;5860;52.018;8.536;2022-08-20T14:37:26;2.88;;;2.40;;
11608;SDS011;5860;52.018;8.536;2022-08-20T14:39:56;5.63;;;2.60;;
11608;SDS011;5860;52.018;8.536;2022-08-20T14:42:25;3.97;;;2.25;;
11608;SDS011;5860;52.018;8.536;2022-08-20T14:44:54;5.18;;;2.67;;
11608;SDS011;5860;52.018;8.536;2022-08-20T14:47:28;4.35;;;2.33;;
11608;SDS011;5860;52.018;8.536;2022-08-20T14:50:03;6.68;;;2.70;;
11608;SDS011;5860;52.018;8.536;2022-08-20T14:52:32;6.60;;;2.55;;
11608;SDS011;5860;52.018;8.536;2022-08-20T14:55:02;4.43;;;2.25;;
11608;SDS011;5860;52.018;8.536;2022-08-20T14:57:30;4.35;;;2.50;;
11608;SDS011;5860;52.018;8.536;2022-08-20T14:59:58;7.68;;;2.70;;
11608;SDS011;5860;52.018;8.536;2022-08-20T15:02:25;4.97;;;3.30;;
11608;SDS011;5860;52.018;8.536;2022-08-20T15:04:52;6.45;;;3.08;;
11608;SDS011;5860;52.018;8.536;2022-08-20T15:07:25;5.18;;;2.90;;
11608;SDS011;5860;52.018;8.536;2022-08-20T15:09:54;5.28;;;3.10;;
11608;SDS011;5860;52.018;8.536;2022-08-20T15:12:22;8.57;;;2.88;;
11608;SDS011;5860;52.018;8.536;2022-08-20T15:14:49;6.65;;;3.00;;
11608;SDS011;5860;52.018;8.536;2022-08-20T15:17:19;4.20;;;2.88;;
11608;SDS011;5860;52.018;8.536;2022-08-20T15:19:52;4.47;;;3.08;;
11608;SDS011;5860;52.018;8.536;2022-08-20T15:22:20;7.13;;;3.22;;